createdAt,value
2022-10-29T00:01:45.011Z,25.10
2022-10-29T00:04:14.954Z,25.10
2022-10-29T00:06:44.889Z,25.10
2022-10-29T00:09:15.462Z,25.10
2022-10-29T00:11:45.461Z,25.10
2022-10-29T00:14:15.361Z,25.10
2022-10-29T00:16:45.321Z,25.10
2022-10-29T00:19:15.252Z,25.10
2022-10-29T00:21:45.230Z,25.10
2022-10-29T00:24:15.329Z,25.10
2022-10-29T00:26:45.276Z,25.10
2022-10-29T00:29:15.300Z,25.10
2022-10-29T00:31:45.226Z,25.10
2022-10-29T00:34:15.147Z,25.10
2022-10-29T00:36:45.045Z,25.10
2022-10-29T00:39:17.827Z,25.10
2022-10-29T00:41:47.737Z,25.10
2022-10-29T00:44:27.409Z,25.10
2022-10-29T00:47:13.255Z,25.10
2022-10-29T00:49:43.269Z,25.10
2022-10-29T00:52:13.313Z,25.10
2022-10-29T00:54:44.186Z,25.10
2022-10-29T00:57:23.116Z,25.10
2022-10-29T00:59:53.130Z,25.10
2022-10-29T01:02:25.774Z,25.10
2022-10-29T01:04:55.882Z,25.10
2022-10-29T01:07:25.808Z,25.10
2022-10-29T01:09:55.724Z,25.10
2022-10-29T01:12:43.778Z,25.10
2022-10-29T01:15:25.207Z,25.10
2022-10-29T01:18:12.757Z,25.10
2022-10-29T01:21:01.011Z,25.10
2022-10-29T01:23:46.191Z,25.10
2022-10-29T01:26:49.781Z,25.10
2022-10-29T01:29:41.048Z,25.10
2022-10-29T01:32:26.536Z,25.10
2022-10-29T01:35:03.878Z,25.20
2022-10-29T01:38:24.266Z,25.10
2022-10-29T01:41:06.398Z,25.20
2022-10-29T01:43:53.236Z,25.10
2022-10-29T01:46:38.021Z,25.10
2022-10-29T01:49:11.103Z,25.10
2022-10-29T01:51:41.057Z,25.10
2022-10-29T01:54:12.599Z,25.10
2022-10-29T01:56:42.654Z,25.10
2022-10-29T01:59:22.982Z,25.10
2022-10-29T02:02:59.448Z,25.10
2022-10-29T02:06:02.823Z,25.10
2022-10-29T02:08:41.371Z,25.10
2022-10-29T02:11:17.778Z,25.10
2022-10-29T02:13:53.648Z,25.10
2022-10-29T02:16:23.594Z,25.10
2022-10-29T02:18:54.500Z,25.10
2022-10-29T02:21:24.355Z,25.10
2022-10-29T02:23:54.318Z,25.10
2022-10-29T02:26:24.276Z,25.10
2022-10-29T02:28:54.170Z,25.10
2022-10-29T02:31:24.103Z,25.10
2022-10-29T02:33:54.309Z,25.10
2022-10-29T02:36:24.294Z,25.10
2022-10-29T02:38:54.232Z,25.10
2022-10-29T02:41:24.078Z,25.10
2022-10-29T02:43:54.036Z,25.10
2022-10-29T02:46:24.804Z,25.10
2022-10-29T02:48:54.756Z,25.10
2022-10-29T02:51:24.825Z,25.10
2022-10-29T02:53:54.845Z,25.10
2022-10-29T02:56:24.799Z,25.10
2022-10-29T02:58:54.783Z,25.10
2022-10-29T03:01:24.815Z,25.10
2022-10-29T03:03:54.891Z,25.10
2022-10-29T03:06:24.837Z,25.10
2022-10-29T03:08:54.809Z,25.10
2022-10-29T03:11:24.648Z,25.10
2022-10-29T03:13:54.546Z,25.10
2022-10-29T03:16:24.545Z,25.10
2022-10-29T03:18:54.527Z,25.10
2022-10-29T03:21:24.617Z,25.10
2022-10-29T03:23:54.534Z,25.10
2022-10-29T03:26:24.483Z,25.10
2022-10-29T03:28:54.374Z,25.10
2022-10-29T03:31:24.331Z,25.10
2022-10-29T03:33:54.294Z,25.10
2022-10-29T03:36:24.305Z,25.10
2022-10-29T03:38:54.343Z,25.10
2022-10-29T03:41:24.210Z,25.10
2022-10-29T03:46:29.131Z,25.10
2022-10-29T03:48:59.310Z,25.10
2022-10-29T03:51:29.266Z,25.10
2022-10-29T03:53:59.305Z,25.10
2022-10-29T03:56:29.201Z,25.10
2022-10-29T03:58:59.114Z,25.10
2022-10-29T04:01:29.223Z,25.10
2022-10-29T04:03:59.193Z,25.10
2022-10-29T04:06:29.119Z,25.10
2022-10-29T04:08:59.097Z,25.10
2022-10-29T04:11:29.056Z,25.10
2022-10-29T04:13:58.932Z,25.10
2022-10-29T04:16:28.856Z,25.10
2022-10-29T04:18:58.812Z,25.10
2022-10-29T04:23:25.383Z,25.10
2022-10-29T04:30:01.365Z,25.10
2022-10-29T04:32:31.379Z,25.10
2022-10-29T04:35:01.267Z,25.10
2022-10-29T04:37:31.444Z,25.10
2022-10-29T04:40:01.522Z,25.10
2022-10-29T04:42:31.422Z,25.10
2022-10-29T04:45:01.379Z,25.10
2022-10-29T04:47:31.294Z,25.10
2022-10-29T04:50:01.165Z,25.10
2022-10-29T04:52:31.066Z,25.10
2022-10-29T04:55:01.036Z,25.10
2022-10-29T04:57:31.052Z,25.10
2022-10-29T05:00:01.035Z,25.10
2022-10-29T05:02:31.028Z,25.10
2022-10-29T05:05:00.884Z,25.10
2022-10-29T05:07:30.903Z,25.10
2022-10-29T05:10:00.838Z,25.10
2022-10-29T05:12:30.728Z,25.10
2022-10-29T05:15:00.668Z,25.20
2022-10-29T05:17:31.273Z,25.20
2022-10-29T05:20:01.291Z,25.20
2022-10-29T05:22:31.179Z,25.20
2022-10-29T05:25:01.148Z,25.20
2022-10-29T05:27:32.330Z,25.20
2022-10-29T05:30:02.347Z,25.20
2022-10-29T05:32:32.307Z,25.20
2022-10-29T05:35:02.190Z,25.20
2022-10-29T05:37:32.066Z,25.20
2022-10-29T05:40:02.040Z,25.30
2022-10-29T05:42:31.921Z,25.20
2022-10-29T05:45:01.825Z,25.30
2022-10-29T05:47:31.696Z,25.30
2022-10-29T05:50:01.827Z,25.30
2022-10-29T05:52:31.816Z,25.30
2022-10-29T05:55:01.663Z,25.30
2022-10-29T05:57:31.663Z,25.30
2022-10-29T06:00:01.631Z,25.30
2022-10-29T06:02:44.362Z,25.30
2022-10-29T06:05:14.488Z,25.40
2022-10-29T06:07:44.351Z,25.40
2022-10-29T06:10:14.231Z,25.40
2022-10-29T06:12:44.275Z,25.40
2022-10-29T06:15:14.242Z,25.40
2022-10-29T06:17:44.880Z,25.40
2022-10-29T06:20:17.873Z,25.40
2022-10-29T06:22:47.837Z,25.40
2022-10-29T06:25:18.184Z,25.40
2022-10-29T06:27:48.494Z,25.40
2022-10-29T06:30:18.484Z,25.40
2022-10-29T06:32:49.331Z,25.40
2022-10-29T06:35:19.791Z,25.40
2022-10-29T06:37:50.046Z,25.50
2022-10-29T06:40:20.140Z,25.80
2022-10-29T06:42:50.233Z,26.00
2022-10-29T06:45:20.567Z,25.90
2022-10-29T06:47:50.485Z,25.70
2022-10-29T06:50:20.533Z,25.70
2022-10-29T06:53:00.792Z,25.60
2022-10-29T06:55:31.254Z,25.60
2022-10-29T06:58:03.749Z,25.60
2022-10-29T07:00:34.070Z,25.60
2022-10-29T07:03:07.396Z,25.60
2022-10-29T07:05:37.903Z,25.60
2022-10-29T07:08:08.113Z,25.60
2022-10-29T07:10:38.097Z,25.50
2022-10-29T07:13:08.085Z,25.60
2022-10-29T07:15:38.281Z,25.50
2022-10-29T07:18:09.543Z,25.60
2022-10-29T07:20:43.912Z,25.60
2022-10-29T07:23:14.619Z,25.60
2022-10-29T07:25:44.883Z,25.60
2022-10-29T07:28:19.560Z,25.60
2022-10-29T07:30:52.454Z,25.50
2022-10-29T07:33:22.458Z,25.30
2022-10-29T07:35:52.859Z,25.10
2022-10-29T07:38:23.074Z,25.00
2022-10-29T07:40:53.576Z,25.10
2022-10-29T07:43:23.846Z,25.30
2022-10-29T07:45:54.185Z,25.30
2022-10-29T07:48:24.841Z,25.30
2022-10-29T07:50:54.762Z,25.40
2022-10-29T07:53:24.762Z,25.40
2022-10-29T07:55:58.009Z,25.40
2022-10-29T07:58:28.347Z,25.40
2022-10-29T08:00:59.080Z,25.40
2022-10-29T08:03:29.029Z,25.40
2022-10-29T08:05:59.836Z,25.40
2022-10-29T08:08:29.997Z,25.40
2022-10-29T08:11:03.681Z,25.40
2022-10-29T08:13:34.248Z,25.40
2022-10-29T08:16:04.550Z,25.40
2022-10-29T08:18:34.762Z,25.40
2022-10-29T08:21:08.009Z,25.40
2022-10-29T08:23:38.002Z,25.40
2022-10-29T08:26:08.319Z,25.30
2022-10-29T08:28:38.667Z,25.40
2022-10-29T08:31:08.722Z,25.30
2022-10-29T08:33:38.688Z,25.30
2022-10-29T08:36:08.845Z,25.30
2022-10-29T08:38:38.721Z,25.30
2022-10-29T08:41:24.166Z,25.30
2022-10-29T08:44:15.666Z,25.30
2022-10-29T08:46:49.363Z,25.30
2022-10-29T08:49:32.819Z,25.30
2022-10-29T08:52:21.016Z,25.30
2022-10-29T08:55:08.389Z,25.30
2022-10-29T08:57:42.254Z,25.30
2022-10-29T09:00:21.698Z,25.30
2022-10-29T09:02:57.650Z,25.30
2022-10-29T09:05:34.038Z,25.30
2022-10-29T09:08:28.416Z,25.30
2022-10-29T09:10:59.027Z,25.30
2022-10-29T09:13:44.284Z,25.30
2022-10-29T09:16:23.147Z,25.30
2022-10-29T09:19:14.486Z,25.30
2022-10-29T09:21:51.932Z,25.30
2022-10-29T09:24:40.017Z,25.30
2022-10-29T09:27:47.297Z,25.30
2022-10-29T09:30:21.259Z,25.20
2022-10-29T09:32:53.978Z,25.20
2022-10-29T09:35:24.314Z,25.20
2022-10-29T09:38:01.554Z,25.30
2022-10-29T09:40:42.054Z,25.20
2022-10-29T09:43:18.082Z,25.20
2022-10-29T09:46:17.041Z,25.20
2022-10-29T09:48:53.955Z,25.20
2022-10-29T09:51:42.779Z,25.20
2022-10-29T09:54:12.723Z,25.20
2022-10-29T09:56:43.270Z,25.10
2022-10-29T09:59:40.986Z,25.10
2022-10-29T10:03:00.367Z,25.10
2022-10-29T10:05:32.504Z,25.10
2022-10-29T10:08:14.934Z,25.20
2022-10-29T10:10:55.799Z,25.20
2022-10-29T10:13:30.647Z,25.30
2022-10-29T10:16:02.572Z,25.30
2022-10-29T10:21:36.478Z,25.30
2022-10-29T10:24:06.549Z,25.30
2022-10-29T10:26:46.623Z,25.40
2022-10-29T10:29:16.715Z,25.40
2022-10-29T10:31:51.274Z,25.40
2022-10-29T10:34:26.114Z,25.40
2022-10-29T10:36:59.366Z,25.40
2022-10-29T10:39:44.960Z,25.40
2022-10-29T10:42:25.841Z,25.50
2022-10-29T10:45:24.828Z,25.60
2022-10-29T10:47:59.962Z,25.60
2022-10-29T10:50:34.538Z,25.60
2022-10-29T10:53:24.609Z,25.60
2022-10-29T10:55:56.033Z,25.60
2022-10-29T10:58:27.436Z,25.60
2022-10-29T11:01:02.124Z,25.60
2022-10-29T11:03:33.947Z,25.70
2022-10-29T11:06:14.948Z,25.70
2022-10-29T11:08:47.263Z,25.70
2022-10-29T11:11:24.578Z,25.70
2022-10-29T11:13:54.491Z,25.70
2022-10-29T11:16:45.853Z,25.70
2022-10-29T11:19:29.365Z,25.80
2022-10-29T11:22:08.101Z,25.70
2022-10-29T11:24:41.048Z,25.80
2022-10-29T11:27:25.564Z,25.80
2022-10-29T11:30:05.279Z,25.80
2022-10-29T11:33:01.563Z,25.80
2022-10-29T11:35:34.795Z,25.80
2022-10-29T11:38:06.266Z,25.80
2022-10-29T11:40:47.657Z,25.80
2022-10-29T11:43:19.454Z,25.80
2022-10-29T11:46:16.444Z,25.80
2022-10-29T11:49:08.932Z,25.90
2022-10-29T11:51:41.640Z,25.80
2022-10-29T11:54:34.043Z,25.80
2022-10-29T11:57:07.101Z,25.90
2022-10-29T12:00:02.017Z,25.90
2022-10-29T12:03:02.992Z,25.90
2022-10-29T12:05:42.308Z,25.90
2022-10-29T12:08:30.974Z,25.90
2022-10-29T12:11:25.262Z,25.90
2022-10-29T12:14:19.652Z,25.80
2022-10-29T12:16:52.403Z,25.90
2022-10-29T12:19:31.584Z,25.90
2022-10-29T12:22:01.736Z,25.90
2022-10-29T12:24:42.475Z,25.90
2022-10-29T12:27:15.592Z,25.80
2022-10-29T12:29:52.340Z,25.60
2022-10-29T12:32:27.398Z,25.50
2022-10-29T12:35:29.778Z,25.40
2022-10-29T12:38:02.826Z,25.20
2022-10-29T12:40:35.352Z,25.10
2022-10-29T12:43:07.170Z,25.00
2022-10-29T12:46:20.493Z,24.90
2022-10-29T12:49:12.789Z,24.80
2022-10-29T12:51:52.074Z,24.80
2022-10-29T12:54:27.917Z,24.60
2022-10-29T12:56:58.576Z,24.60
2022-10-29T12:59:36.960Z,24.70
2022-10-29T13:02:29.595Z,24.80
2022-10-29T13:05:08.092Z,24.90
2022-10-29T13:08:01.586Z,24.90
2022-10-29T13:10:34.577Z,25.00
2022-10-29T13:13:17.205Z,25.00
2022-10-29T13:16:08.841Z,25.10
2022-10-29T13:18:46.637Z,25.10
2022-10-29T13:21:54.905Z,25.10
2022-10-29T13:24:25.207Z,25.10
2022-10-29T13:27:00.245Z,25.10
2022-10-29T13:29:52.847Z,25.10
2022-10-29T13:32:33.818Z,25.10
2022-10-29T13:35:19.239Z,25.10
2022-10-29T13:37:55.373Z,25.20
2022-10-29T13:40:25.470Z,25.20
2022-10-29T13:43:12.180Z,25.20
2022-10-29T13:45:42.910Z,25.20
2022-10-29T13:48:25.913Z,25.20
2022-10-29T13:50:57.090Z,25.20
2022-10-29T13:53:37.500Z,25.30
2022-10-29T13:56:13.229Z,25.30
2022-10-29T13:58:43.438Z,25.30
2022-10-29T14:01:16.829Z,25.30
2022-10-29T14:04:07.872Z,25.30
2022-10-29T14:06:39.531Z,25.30
2022-10-29T14:09:37.360Z,25.30
2022-10-29T14:12:08.587Z,24.10
2022-10-29T14:15:01.884Z,25.30
2022-10-29T14:17:32.072Z,25.30
2022-10-29T14:20:01.997Z,25.30
2022-10-29T14:22:42.168Z,25.40
2022-10-29T14:25:27.628Z,25.30
2022-10-29T14:28:18.880Z,25.30
2022-10-29T14:30:49.655Z,25.30
2022-10-29T14:33:27.239Z,25.40
2022-10-29T14:36:08.000Z,25.30
2022-10-29T14:39:05.285Z,25.30
2022-10-29T14:41:35.252Z,25.30
2022-10-29T14:44:17.775Z,25.40
2022-10-29T14:47:05.492Z,25.30
2022-10-29T14:49:37.175Z,25.30
2022-10-29T14:52:09.613Z,25.40
2022-10-29T14:54:43.095Z,25.40
2022-10-29T14:57:17.790Z,25.40
2022-10-29T14:59:52.652Z,25.40
2022-10-29T15:02:39.269Z,25.40
2022-10-29T15:05:26.730Z,25.40
2022-10-29T15:08:12.412Z,25.40
2022-10-29T15:10:49.617Z,25.40
2022-10-29T15:13:29.020Z,25.40
2022-10-29T15:16:17.911Z,25.40
2022-10-29T15:18:51.626Z,25.40
2022-10-29T15:21:25.665Z,25.40
2022-10-29T15:24:07.673Z,25.40
2022-10-29T15:26:37.853Z,25.40
2022-10-29T15:29:10.770Z,25.40
2022-10-29T15:31:47.989Z,25.40
2022-10-29T15:34:26.305Z,25.40
2022-10-29T15:37:02.797Z,25.40
2022-10-29T15:39:54.548Z,25.40
2022-10-29T15:42:28.505Z,25.40
2022-10-29T15:45:20.864Z,25.40
2022-10-29T15:47:59.634Z,25.40
2022-10-29T15:50:56.488Z,25.40
2022-10-29T15:53:26.502Z,25.40
2022-10-29T15:55:56.720Z,25.40
2022-10-29T15:58:27.716Z,25.50
2022-10-29T16:00:58.573Z,25.50
2022-10-29T16:03:29.337Z,25.50
2022-10-29T16:06:04.917Z,25.50
2022-10-29T16:08:46.301Z,25.50
2022-10-29T16:11:17.861Z,25.50
2022-10-29T16:13:53.523Z,25.50
2022-10-29T16:16:27.059Z,25.50
2022-10-29T16:18:57.464Z,25.50
2022-10-29T16:21:27.657Z,25.50
2022-10-29T16:23:57.733Z,25.50
2022-10-29T16:26:29.842Z,25.50
2022-10-29T16:29:00.530Z,25.50
2022-10-29T16:31:31.140Z,25.50
2022-10-29T16:34:03.494Z,25.40
2022-10-29T16:36:36.604Z,25.40
2022-10-29T16:39:07.648Z,25.40
2022-10-29T16:41:39.224Z,25.40
2022-10-29T16:44:09.658Z,25.40
2022-10-29T16:46:39.650Z,25.40
2022-10-29T16:49:09.682Z,25.40
2022-10-29T16:51:39.862Z,25.40
2022-10-29T16:54:09.910Z,25.40
2022-10-29T16:56:40.126Z,25.40
2022-10-29T16:59:10.150Z,25.40
2022-10-29T17:01:40.136Z,25.40
2022-10-29T17:04:10.465Z,25.40
2022-10-29T17:06:40.482Z,25.40
2022-10-29T17:09:10.548Z,25.40
2022-10-29T17:11:40.513Z,25.40
2022-10-29T17:14:10.583Z,25.40
2022-10-29T17:16:40.621Z,25.40
2022-10-29T17:19:10.674Z,25.30
2022-10-29T17:21:40.640Z,25.30
2022-10-29T17:24:10.863Z,25.30
2022-10-29T17:26:40.800Z,25.30
2022-10-29T17:29:10.877Z,25.30
2022-10-29T17:31:40.955Z,25.30
2022-10-29T17:34:10.992Z,25.30
2022-10-29T17:36:42.282Z,25.30
2022-10-29T17:39:13.140Z,25.30
2022-10-29T17:41:43.144Z,25.30
2022-10-29T17:44:13.634Z,25.30
2022-10-29T17:46:43.878Z,25.30
2022-10-29T17:49:13.956Z,25.30
2022-10-29T17:51:44.041Z,25.30
2022-10-29T17:54:15.803Z,25.30
2022-10-29T17:56:45.755Z,25.20
2022-10-29T17:59:15.741Z,25.30
2022-10-29T18:01:46.514Z,25.20
2022-10-29T18:04:16.863Z,25.20
2022-10-29T18:06:47.315Z,25.30
2022-10-29T18:09:20.399Z,25.20
2022-10-29T18:11:54.118Z,25.20
2022-10-29T18:14:24.118Z,25.20
2022-10-29T18:16:54.124Z,25.30
2022-10-29T18:19:26.685Z,25.20
2022-10-29T18:21:56.725Z,25.20
2022-10-29T18:24:29.557Z,25.20
2022-10-29T18:26:59.691Z,25.20
2022-10-29T18:29:29.748Z,25.20
2022-10-29T18:31:59.836Z,25.20
2022-10-29T18:34:30.175Z,25.20
2022-10-29T18:37:00.085Z,25.20
2022-10-29T18:39:30.317Z,25.20
2022-10-29T18:42:00.898Z,25.20
2022-10-29T18:44:31.063Z,25.20
2022-10-29T18:47:01.187Z,25.20
2022-10-29T18:49:32.870Z,25.20
2022-10-29T18:52:02.925Z,25.20
2022-10-29T18:54:33.104Z,25.20
2022-10-29T18:57:03.120Z,25.20
2022-10-29T18:59:33.074Z,25.20
2022-10-29T19:02:03.200Z,25.20
2022-10-29T19:04:33.483Z,25.20
2022-10-29T19:07:03.581Z,25.20
2022-10-29T19:09:34.069Z,25.20
2022-10-29T19:12:04.065Z,25.20
2022-10-29T19:14:35.861Z,25.20
2022-10-29T19:17:06.426Z,25.20
2022-10-29T19:19:36.471Z,25.20
2022-10-29T19:22:07.166Z,25.20
2022-10-29T19:24:37.705Z,25.10
2022-10-29T19:27:10.978Z,25.20
2022-10-29T19:29:41.203Z,25.20
2022-10-29T19:32:11.162Z,25.10
2022-10-29T19:34:41.358Z,24.40
2022-10-29T19:37:11.318Z,25.20
2022-10-29T19:39:41.372Z,25.20
2022-10-29T19:42:11.425Z,25.10
2022-10-29T19:44:41.611Z,25.10
2022-10-29T19:47:11.584Z,25.20
2022-10-29T19:49:41.870Z,25.10
2022-10-29T19:52:11.839Z,25.10
2022-10-29T19:54:41.816Z,25.20
2022-10-29T19:57:11.747Z,25.10
2022-10-29T19:59:41.647Z,25.20
2022-10-29T20:02:12.762Z,25.10
2022-10-29T20:04:43.781Z,25.10
2022-10-29T20:07:13.887Z,25.10
2022-10-29T20:09:44.169Z,25.10
2022-10-29T20:12:14.292Z,25.10
2022-10-29T20:14:44.285Z,25.10
2022-10-29T20:17:14.337Z,25.10
2022-10-29T20:19:44.971Z,25.10
2022-10-29T20:22:14.951Z,25.20
2022-10-29T20:24:44.877Z,25.10
2022-10-29T20:27:14.901Z,25.10
2022-10-29T20:29:44.925Z,25.10
2022-10-29T20:32:14.942Z,25.10
2022-10-29T20:34:44.902Z,25.10
2022-10-29T20:37:15.017Z,25.10
2022-10-29T20:39:45.087Z,25.10
2022-10-29T20:42:15.076Z,25.10
2022-10-29T20:44:45.959Z,25.10
2022-10-29T20:47:16.600Z,25.10
2022-10-29T20:49:47.168Z,25.10
2022-10-29T20:52:17.504Z,25.10
2022-10-29T20:54:47.907Z,25.10
2022-10-29T20:57:17.957Z,25.10
2022-10-29T20:59:47.903Z,26.40
2022-10-29T21:02:18.481Z,25.10
2022-10-29T21:04:49.743Z,25.10
2022-10-29T21:07:20.246Z,25.10
2022-10-29T21:09:50.908Z,25.10
2022-10-29T21:12:21.333Z,25.10
2022-10-29T21:14:51.302Z,25.10
2022-10-29T21:17:23.340Z,25.10
2022-10-29T21:19:54.348Z,25.10
2022-10-29T21:22:25.338Z,25.10
2022-10-29T21:24:55.927Z,25.10
2022-10-29T21:27:26.031Z,25.10
2022-10-29T21:29:56.011Z,25.10
2022-10-29T21:32:26.469Z,25.10
2022-10-29T21:34:56.694Z,25.10
2022-10-29T21:37:26.723Z,25.10
2022-10-29T21:39:58.129Z,25.10
2022-10-29T21:42:31.263Z,25.10
2022-10-29T21:45:01.347Z,25.10
2022-10-29T21:47:31.384Z,25.10
2022-10-29T21:50:01.672Z,25.10
2022-10-29T21:52:34.583Z,25.10
2022-10-29T21:55:04.720Z,25.10
2022-10-29T21:57:34.897Z,25.00
2022-10-29T22:00:08.893Z,25.10
2022-10-29T22:02:38.760Z,25.00
2022-10-29T22:05:09.172Z,25.10
2022-10-29T22:07:39.105Z,25.10
2022-10-29T22:10:09.520Z,25.00
2022-10-29T22:12:39.429Z,25.10
2022-10-29T22:15:10.259Z,25.00
2022-10-29T22:17:40.294Z,25.00
2022-10-29T22:20:10.798Z,25.10
2022-10-29T22:22:40.821Z,25.00
2022-10-29T22:25:11.451Z,25.00
2022-10-29T22:27:41.401Z,25.00
2022-10-29T22:30:11.888Z,25.10
2022-10-29T22:32:41.930Z,25.00
2022-10-29T22:35:12.069Z,25.00
2022-10-29T22:37:42.558Z,25.00
2022-10-29T22:40:12.915Z,25.00
2022-10-29T22:42:43.699Z,25.00
2022-10-29T22:45:13.724Z,25.00
2022-10-29T22:47:43.784Z,25.00
2022-10-29T22:50:14.027Z,25.00
2022-10-29T22:52:44.458Z,25.00
2022-10-29T22:55:14.469Z,25.00
2022-10-29T22:57:44.455Z,25.00
2022-10-29T23:00:15.088Z,25.00
2022-10-29T23:02:48.463Z,25.00
2022-10-29T23:05:19.036Z,25.00
2022-10-29T23:07:49.679Z,25.00
2022-10-29T23:10:19.716Z,25.00
2022-10-29T23:12:49.717Z,25.00
2022-10-29T23:15:20.315Z,25.00
2022-10-29T23:17:54.435Z,25.00
2022-10-29T23:20:24.691Z,25.00
2022-10-29T23:22:54.960Z,25.00
2022-10-29T23:25:25.141Z,25.00
2022-10-29T23:27:56.416Z,25.00
2022-10-29T23:30:26.603Z,25.00
2022-10-29T23:32:56.957Z,25.00
2022-10-29T23:35:27.222Z,25.00
2022-10-29T23:37:57.552Z,25.00
2022-10-29T23:40:27.669Z,25.00
2022-10-29T23:42:57.936Z,25.00
2022-10-29T23:45:27.911Z,25.00
2022-10-29T23:47:58.291Z,25.00
2022-10-29T23:50:28.648Z,25.00
2022-10-29T23:52:58.993Z,25.00
2022-10-29T23:55:29.105Z,25.00
2022-10-29T23:57:59.123Z,25.00
